This is the latest recevied weather packets stored in our database for station/object SR6WXJG. If no packets are shown the sender has not sent any weather packets the latest 10 day(s).
| Time | Temp. | Humidity | Pressure | Rain* | Wind** | Luminosity | Snow |
|---|---|---|---|---|---|---|---|
| 1777582987 | 7.22° C | 58% | 1030 hPa | 0 mm | - | - | - |
| 1777582086 | 7.22° C | 58% | 1030 hPa | 0 mm | - | - | - |
| 1777581186 | 7.78° C | 57% | 1030 hPa | 0 mm | - | - | - |
| 1777580286 | 8.33° C | 51% | 1030 hPa | 0 mm | - | - | - |
| 1777579385 | 8.33° C | 53% | 1030 hPa | 0 mm | - | - | - |
| 1777578485 | 8.33° C | 52% | 1030 hPa | 0 mm | - | - | - |
| 1777577585 | 8.89° C | 52% | 1030 hPa | 0 mm | - | - | - |
| 1777576685 | 10° C | 49% | 1029 hPa | 0 mm | - | - | - |
| 1777575784 | 10° C | 49% | 1029 hPa | 0 mm | - | - | - |
| 1777574884 | 10° C | 49% | 1029 hPa | 0 mm | - | - | - |
| 1777573983 | 10.56° C | 48% | 1029 hPa | 0 mm | - | - | - |
| 1777573083 | 11.67° C | 41% | 1029 hPa | 0 mm | - | - | - |
| 1777572183 | 11.67° C | 46% | 1029 hPa | 0 mm | - | - | - |
| 1777571283 | 12.22° C | 46% | 1029 hPa | 0 mm | - | - | - |
| 1777570382 | 12.22° C | 45% | 1029 hPa | 0 mm | - | - | - |
| 1777569482 | 13.33° C | 37% | 1028 hPa | 0 mm | - | - | - |
| 1777568582 | 13.33° C | 43% | 1029 hPa | 0 mm | - | - | - |
| 1777567681 | 13.33° C | 43% | 1029 hPa | 0 mm | - | - | - |
| 1777566781 | 13.89° C | 43% | 1029 hPa | 0 mm | - | - | - |
| 1777565880 | 14.44° C | 33% | 1029 hPa | 0 mm | - | - | - |
| 1777564980 | 14.44° C | 37% | 1029 hPa | 0 mm | - | - | - |
| 1777564080 | 14.44° C | 37% | 1029 hPa | 0 mm | - | - | - |
| 1777563179 | 14.44° C | 36% | 1029 hPa | 0 mm | - | - | - |
| 1777562279 | 14.44° C | 31% | 1029 hPa | 0 mm | - | - | - |
| 1777561379 | 14.44° C | 35% | 1029 hPa | 0 mm | - | - | - |
* Rain latest hour (hover to see other rain measurements)
** Current wind speed in m/s (hover to see current wind gust speed)